createdAt,value
2023-05-04T03:01:40.285Z,11.40
2023-05-04T03:04:08.876Z,11.40
2023-05-04T03:06:37.063Z,11.50
2023-05-04T03:09:05.420Z,11.50
2023-05-04T03:11:33.251Z,11.60
2023-05-04T03:14:04.878Z,11.60
2023-05-04T03:16:33.635Z,11.60
2023-05-04T03:19:04.529Z,11.60
2023-05-04T03:21:32.457Z,11.60
2023-05-04T03:24:00.556Z,11.70
2023-05-04T03:26:28.921Z,11.70
2023-05-04T03:28:56.786Z,11.70
2023-05-04T03:31:24.713Z,11.60
2023-05-04T03:33:53.832Z,11.50
2023-05-04T03:36:24.022Z,11.50
2023-05-04T03:38:52.501Z,11.40
2023-05-04T03:41:21.695Z,11.40
2023-05-04T03:43:49.542Z,11.40
2023-05-04T03:46:17.638Z,11.50
2023-05-04T03:48:47.129Z,11.40
2023-05-04T03:51:18.077Z,11.40
2023-05-04T03:53:48.088Z,11.40
2023-05-04T03:56:18.145Z,11.40
2023-05-04T03:58:47.350Z,11.30
2023-05-04T04:01:18.761Z,11.30
2023-05-04T04:03:46.696Z,11.40
2023-05-04T04:06:14.722Z,11.40
2023-05-04T04:08:42.781Z,11.40
2023-05-04T04:11:12.013Z,11.40
2023-05-04T04:13:39.849Z,11.40
2023-05-04T04:16:07.850Z,11.50
2023-05-04T04:18:35.735Z,11.50
2023-05-04T04:21:03.629Z,11.60
2023-05-04T04:23:31.505Z,11.60
2023-05-04T04:25:59.344Z,11.50
2023-05-04T04:28:28.605Z,11.40
2023-05-04T04:30:56.673Z,11.40
2023-05-04T04:33:24.611Z,11.50
2023-05-04T04:35:53.124Z,11.50
2023-05-04T04:38:21.276Z,11.60
2023-05-04T04:40:49.163Z,11.60
2023-05-04T04:43:17.013Z,11.60
2023-05-04T04:45:46.742Z,11.70
2023-05-04T04:48:14.591Z,11.70
2023-05-04T04:50:42.458Z,11.70
2023-05-04T04:53:10.910Z,11.70
2023-05-04T04:55:39.488Z,11.70
2023-05-04T04:58:08.759Z,11.70
2023-05-04T05:00:36.867Z,11.70
2023-05-04T05:03:06.114Z,11.70
2023-05-04T05:05:34.001Z,11.70
2023-05-04T05:08:02.372Z,11.70
2023-05-04T05:10:30.707Z,11.80
2023-05-04T05:12:58.627Z,11.80
2023-05-04T05:15:26.492Z,11.90
2023-05-04T05:17:54.407Z,11.90
2023-05-04T05:20:24.002Z,12.00
2023-05-04T05:22:52.101Z,12.10
2023-05-04T05:25:20.384Z,12.20
2023-05-04T05:27:48.247Z,12.30
2023-05-04T05:30:16.655Z,12.40
2023-05-04T05:32:45.520Z,12.50
2023-05-04T05:35:14.505Z,12.60
2023-05-04T05:37:43.825Z,12.60
2023-05-04T05:40:12.326Z,12.70
2023-05-04T05:42:41.484Z,12.70
2023-05-04T05:45:10.730Z,12.80
2023-05-04T05:47:38.683Z,12.90
2023-05-04T05:50:08.423Z,12.90
2023-05-04T05:52:36.397Z,12.90
2023-05-04T05:55:06.252Z,13.00
2023-05-04T05:57:34.084Z,13.10
2023-05-04T06:00:02.074Z,13.20
2023-05-04T06:02:40.122Z,13.20
2023-05-04T06:05:08.664Z,13.30
2023-05-04T06:07:36.569Z,13.30
2023-05-04T06:10:06.813Z,13.40
2023-05-04T06:12:35.050Z,13.50
2023-05-04T06:15:03.266Z,13.60
2023-05-04T06:17:31.188Z,13.70
2023-05-04T06:19:59.049Z,13.70
2023-05-04T06:22:26.896Z,13.70
2023-05-04T06:24:58.923Z,13.70
2023-05-04T06:27:32.807Z,13.80
2023-05-04T06:30:00.753Z,13.80
2023-05-04T06:32:28.650Z,13.90
2023-05-04T06:34:56.614Z,13.90
2023-05-04T06:37:24.513Z,13.90
2023-05-04T06:39:52.369Z,14.00
2023-05-04T06:42:20.883Z,14.00
2023-05-04T06:44:52.453Z,13.90
2023-05-04T06:47:20.324Z,14.00
2023-05-04T06:49:48.568Z,14.00
2023-05-04T06:52:16.403Z,14.10
2023-05-04T06:54:44.257Z,14.20
2023-05-04T06:57:12.182Z,14.20
2023-05-04T06:59:40.016Z,14.10
2023-05-04T07:02:09.238Z,14.10
2023-05-04T07:04:37.109Z,14.10
2023-05-04T07:07:04.970Z,14.20
2023-05-04T07:09:33.056Z,14.20
2023-05-04T07:12:00.907Z,14.30
2023-05-04T07:14:28.761Z,14.30
2023-05-04T07:16:56.608Z,14.40
2023-05-04T07:19:25.794Z,14.50
2023-05-04T07:21:53.649Z,14.40
2023-05-04T07:24:21.495Z,14.50
2023-05-04T07:26:49.363Z,14.60
2023-05-04T07:29:17.195Z,14.70
2023-05-04T07:31:45.085Z,14.70
2023-05-04T07:34:12.935Z,14.70
2023-05-04T07:36:43.278Z,14.80
2023-05-04T07:39:12.151Z,14.90
2023-05-04T07:41:39.984Z,14.90
2023-05-04T07:44:08.773Z,15.00
2023-05-04T07:46:36.731Z,15.10
2023-05-04T07:49:04.720Z,15.10
2023-05-04T07:51:32.533Z,15.20
2023-05-04T07:54:01.722Z,15.20
2023-05-04T07:56:29.532Z,15.20
2023-05-04T07:58:57.363Z,15.30
2023-05-04T08:01:26.144Z,15.30
2023-05-04T08:03:54.292Z,15.30
2023-05-04T08:06:22.187Z,15.40
2023-05-04T08:08:52.702Z,15.50
2023-05-04T08:11:22.267Z,15.60
2023-05-04T08:13:50.729Z,15.70
2023-05-04T08:16:18.838Z,15.70
2023-05-04T08:18:46.730Z,15.70
2023-05-04T08:21:14.629Z,15.90
2023-05-04T08:23:42.534Z,15.90
2023-05-04T08:26:10.614Z,15.90
2023-05-04T08:28:41.121Z,16.00
2023-05-04T08:31:09.005Z,16.00
2023-05-04T08:33:36.918Z,16.10
2023-05-04T08:36:05.641Z,16.10
2023-05-04T08:38:33.540Z,16.20
2023-05-04T08:41:04.201Z,16.30
2023-05-04T08:43:32.189Z,16.30
2023-05-04T08:46:01.450Z,16.30
2023-05-04T08:48:29.358Z,16.40
2023-05-04T08:50:59.421Z,16.60
2023-05-04T08:53:29.005Z,16.70
2023-05-04T08:55:57.434Z,16.70
2023-05-04T08:58:27.022Z,16.80
2023-05-04T09:00:55.763Z,16.90
2023-05-04T09:03:26.162Z,17.00
2023-05-04T09:05:54.172Z,17.00
2023-05-04T09:08:22.261Z,17.00
2023-05-04T09:10:50.088Z,17.10
2023-05-04T09:13:18.223Z,17.10
2023-05-04T09:15:56.278Z,17.20
2023-05-04T09:18:36.222Z,17.30
2023-05-04T09:21:04.158Z,17.30
2023-05-04T09:23:32.697Z,17.50
2023-05-04T09:26:00.597Z,17.60
2023-05-04T09:28:38.456Z,17.70
2023-05-04T09:31:07.668Z,17.90
2023-05-04T09:33:37.084Z,17.90
2023-05-04T09:36:15.719Z,17.90
2023-05-04T09:38:44.161Z,18.00
2023-05-04T09:41:12.051Z,18.00
2023-05-04T09:43:41.051Z,18.10
2023-05-04T09:46:16.229Z,18.20
2023-05-04T09:48:53.405Z,18.20
2023-05-04T09:51:23.229Z,18.30
2023-05-04T09:53:51.813Z,18.30
2023-05-04T09:56:28.414Z,18.50
2023-05-04T09:58:59.093Z,18.70
2023-05-04T10:01:29.647Z,18.70
2023-05-04T10:03:58.944Z,18.90
2023-05-04T10:06:29.921Z,19.20
2023-05-04T10:09:00.524Z,19.40
2023-05-04T10:11:29.613Z,19.60
2023-05-04T10:13:57.693Z,19.90
2023-05-04T10:16:39.396Z,20.10
2023-05-04T10:19:24.979Z,20.50
2023-05-04T10:22:05.889Z,20.70
2023-05-04T10:25:05.357Z,20.80
2023-05-04T10:27:47.378Z,21.00
2023-05-04T10:30:18.507Z,21.30
2023-05-04T10:32:46.981Z,21.50
2023-05-04T10:35:18.688Z,21.50
2023-05-04T10:37:54.264Z,21.60
2023-05-04T10:40:37.168Z,21.80
2023-05-04T10:43:05.497Z,21.90
2023-05-04T10:45:37.614Z,22.10
2023-05-04T10:48:06.573Z,22.30
2023-05-04T10:50:45.543Z,22.50
2023-05-04T10:53:13.947Z,22.60
2023-05-04T10:55:42.632Z,22.80
2023-05-04T10:58:14.674Z,23.00
2023-05-04T11:00:44.720Z,23.20
2023-05-04T11:03:14.012Z,23.30
2023-05-04T11:05:43.330Z,23.50
2023-05-04T11:08:20.123Z,23.70
2023-05-04T11:10:48.975Z,23.90
2023-05-04T11:13:17.170Z,24.10
2023-05-04T11:15:46.385Z,24.00
2023-05-04T11:18:14.407Z,24.00
2023-05-04T11:20:42.488Z,24.10
2023-05-04T11:23:10.990Z,24.10
2023-05-04T11:25:40.354Z,24.30
2023-05-04T11:28:08.588Z,24.30
2023-05-04T11:30:38.426Z,24.40
2023-05-04T11:33:12.667Z,24.50
2023-05-04T11:35:42.058Z,24.90
2023-05-04T11:38:10.062Z,25.30
2023-05-04T11:40:41.227Z,25.70
2023-05-04T11:43:12.635Z,25.90
2023-05-04T11:45:42.559Z,26.00
2023-05-04T11:48:11.102Z,25.90
2023-05-04T11:50:39.192Z,26.40
2023-05-04T11:53:08.985Z,26.60
2023-05-04T11:55:38.033Z,26.90
2023-05-04T11:58:08.942Z,27.40
2023-05-04T12:00:39.423Z,27.50
2023-05-04T12:03:08.592Z,28.00
2023-05-04T12:05:38.126Z,28.30
2023-05-04T12:08:07.347Z,28.30
2023-05-04T12:10:35.532Z,28.50
2023-05-04T12:13:03.767Z,28.90
2023-05-04T12:15:36.389Z,29.50
2023-05-04T12:18:04.890Z,30.10
2023-05-04T12:20:33.448Z,30.10
2023-05-04T12:23:08.397Z,30.60
2023-05-04T12:25:44.202Z,30.90
2023-05-04T12:28:20.447Z,31.10
2023-05-04T12:30:49.855Z,31.50
2023-05-04T12:33:17.772Z,31.80
2023-05-04T12:35:45.643Z,31.90
2023-05-04T12:38:13.584Z,32.30
2023-05-04T12:40:41.644Z,32.20
2023-05-04T12:43:10.302Z,32.50
2023-05-04T12:45:38.206Z,32.90
2023-05-04T12:48:07.611Z,33.40
2023-05-04T12:50:35.548Z,33.70
2023-05-04T12:53:04.219Z,34.30
2023-05-04T12:55:32.355Z,34.90
2023-05-04T12:58:00.346Z,34.70
2023-05-04T13:00:32.067Z,34.70
2023-05-04T13:03:00.293Z,33.70
2023-05-04T13:05:29.822Z,32.80
2023-05-04T13:07:58.133Z,31.30
2023-05-04T13:10:27.024Z,29.60
2023-05-04T13:12:54.978Z,29.50
2023-05-04T13:15:22.909Z,30.40
2023-05-04T13:17:50.792Z,32.10
2023-05-04T13:20:18.630Z,32.60
2023-05-04T13:22:48.129Z,33.60
2023-05-04T13:25:15.976Z,33.50
2023-05-04T13:27:43.829Z,33.60
2023-05-04T13:30:12.691Z,33.80
2023-05-04T13:32:40.697Z,33.40
2023-05-04T13:35:09.541Z,33.30
2023-05-04T13:37:38.144Z,33.70
2023-05-04T13:40:08.754Z,34.00
2023-05-04T13:42:37.388Z,33.90
2023-05-04T13:45:07.010Z,33.20
2023-05-04T13:47:36.903Z,33.20
2023-05-04T13:50:05.310Z,32.50
2023-05-04T13:52:33.338Z,33.60
2023-05-04T13:55:01.159Z,34.80
2023-05-04T13:57:30.512Z,34.70
2023-05-04T14:00:07.235Z,35.40
2023-05-04T14:02:40.263Z,35.40
2023-05-04T14:05:08.974Z,34.90
2023-05-04T14:07:37.066Z,34.90
2023-05-04T14:10:05.402Z,35.00
2023-05-04T14:12:34.875Z,35.10
2023-05-04T14:15:04.330Z,35.10
2023-05-04T14:17:32.568Z,35.40
2023-05-04T14:20:00.728Z,35.40
2023-05-04T14:22:29.226Z,35.10
2023-05-04T14:24:57.239Z,34.10
2023-05-04T14:27:25.192Z,33.70
2023-05-04T14:29:54.487Z,33.80
2023-05-04T14:32:22.273Z,34.10
2023-05-04T14:34:50.891Z,34.80
2023-05-04T14:37:18.829Z,35.30
2023-05-04T14:39:47.269Z,35.00
2023-05-04T14:42:15.152Z,34.80
2023-05-04T14:44:43.246Z,34.30
2023-05-04T14:47:12.948Z,32.80
2023-05-04T14:49:42.566Z,31.90
2023-05-04T14:52:10.641Z,31.40
2023-05-04T14:54:38.618Z,31.50
2023-05-04T14:57:08.903Z,32.20
2023-05-04T14:59:37.416Z,32.30
2023-05-04T15:02:06.521Z,33.00
2023-05-04T15:04:35.743Z,32.00
2023-05-04T15:07:04.236Z,31.40
2023-05-04T15:09:32.570Z,31.90
2023-05-04T15:12:00.359Z,32.50
2023-05-04T15:14:28.141Z,32.80
2023-05-04T15:16:55.928Z,32.30
2023-05-04T15:19:23.729Z,32.50
2023-05-04T15:21:52.858Z,32.60
2023-05-04T15:24:20.661Z,33.70
2023-05-04T15:26:48.477Z,34.80
2023-05-04T15:29:16.401Z,36.00
2023-05-04T15:31:44.346Z,36.80
2023-05-04T15:34:12.175Z,36.00
2023-05-04T15:36:40.111Z,36.00
2023-05-04T15:39:09.423Z,35.30
2023-05-04T15:41:37.559Z,33.90
2023-05-04T15:44:06.654Z,32.40
2023-05-04T15:46:34.571Z,31.40
2023-05-04T15:49:02.548Z,30.70
2023-05-04T15:51:31.802Z,29.90
2023-05-04T15:54:00.155Z,29.30
2023-05-04T15:56:29.524Z,29.00
2023-05-04T15:58:57.376Z,28.70
2023-05-04T16:01:25.360Z,28.40
2023-05-04T16:03:55.387Z,28.10
2023-05-04T16:06:23.979Z,27.90
2023-05-04T16:08:51.968Z,27.80
2023-05-04T16:11:19.931Z,27.70
2023-05-04T16:13:49.121Z,27.50
2023-05-04T16:16:17.370Z,27.40
2023-05-04T16:18:45.372Z,27.30
2023-05-04T16:21:14.968Z,27.00
2023-05-04T16:23:45.442Z,26.60
2023-05-04T16:26:13.316Z,26.40
2023-05-04T16:28:41.516Z,26.50
2023-05-04T16:31:12.079Z,26.30
2023-05-04T16:33:41.300Z,26.40
2023-05-04T16:36:10.161Z,26.40
2023-05-04T16:38:38.041Z,26.40
2023-05-04T16:41:06.144Z,26.30
2023-05-04T16:43:34.019Z,26.10
2023-05-04T16:46:02.438Z,26.10
2023-05-04T16:48:31.726Z,26.10
2023-05-04T16:50:59.581Z,25.90
2023-05-04T16:53:27.418Z,25.80
2023-05-04T16:55:55.251Z,25.70
2023-05-04T16:58:23.151Z,25.60
2023-05-04T17:00:51.103Z,25.50
2023-05-04T17:03:19.464Z,25.50
2023-05-04T17:05:48.740Z,25.50
2023-05-04T17:08:17.418Z,25.40
2023-05-04T17:10:45.296Z,25.30
2023-05-04T17:13:13.288Z,25.30
2023-05-04T17:15:41.296Z,25.20
2023-05-04T17:18:09.240Z,25.10
2023-05-04T17:20:37.093Z,25.10
2023-05-04T17:23:06.365Z,25.10
2023-05-04T17:25:34.739Z,25.00
2023-05-04T17:28:03.228Z,24.90
2023-05-04T17:30:31.288Z,24.90
2023-05-04T17:32:59.212Z,24.80
2023-05-04T17:35:27.259Z,24.70
2023-05-04T17:37:57.937Z,24.70
2023-05-04T17:40:28.635Z,24.60
2023-05-04T17:42:56.864Z,24.60
2023-05-04T17:45:24.826Z,24.50
2023-05-04T17:47:53.038Z,24.40
2023-05-04T17:50:21.360Z,24.30
2023-05-04T17:52:52.707Z,24.20
2023-05-04T17:55:20.711Z,24.10
2023-05-04T17:57:50.099Z,24.10
2023-05-04T18:00:18.309Z,24.00
2023-05-04T18:02:46.935Z,24.00
2023-05-04T18:05:14.990Z,23.80
2023-05-04T18:07:43.244Z,23.70
2023-05-04T18:10:11.989Z,23.50
2023-05-04T18:12:39.925Z,23.40
2023-05-04T18:15:10.395Z,23.20
2023-05-04T18:17:38.705Z,23.00
2023-05-04T18:20:10.177Z,22.90
2023-05-04T18:22:39.933Z,22.70
2023-05-04T18:25:08.822Z,22.70
2023-05-04T18:27:36.945Z,22.70
2023-05-04T18:30:06.274Z,22.60
2023-05-04T18:32:36.067Z,22.60
2023-05-04T18:35:04.284Z,22.60
2023-05-04T18:37:32.294Z,22.50
2023-05-04T18:40:00.877Z,22.40
2023-05-04T18:42:28.748Z,22.40
2023-05-04T18:44:56.809Z,22.30
2023-05-04T18:47:24.774Z,22.30
2023-05-04T18:49:56.210Z,22.20
2023-05-04T18:52:24.312Z,22.10
2023-05-04T18:54:52.464Z,22.00
2023-05-04T18:57:20.342Z,21.90
2023-05-04T18:59:48.570Z,21.90
2023-05-04T19:02:16.554Z,21.80
2023-05-04T19:04:46.749Z,21.80
2023-05-04T19:07:17.040Z,21.70
2023-05-04T19:09:46.395Z,21.70
2023-05-04T19:12:15.421Z,21.60
2023-05-04T19:14:44.000Z,21.50
2023-05-04T19:17:11.872Z,21.50
2023-05-04T19:19:39.729Z,21.40
2023-05-04T19:22:07.835Z,21.30
2023-05-04T19:24:37.671Z,21.20
2023-05-04T19:27:05.772Z,21.20
2023-05-04T19:29:33.612Z,21.10
2023-05-04T19:32:11.974Z,21.00
2023-05-04T19:34:43.926Z,20.90
2023-05-04T19:37:12.023Z,20.90
2023-05-04T19:39:41.220Z,20.90
2023-05-04T19:42:09.074Z,20.80
2023-05-04T19:44:37.117Z,20.80
2023-05-04T19:47:05.094Z,20.80
2023-05-04T19:49:33.066Z,20.80
2023-05-04T19:52:01.106Z,20.70
2023-05-04T19:54:29.051Z,20.70
2023-05-04T19:56:58.233Z,20.70
2023-05-04T19:59:26.415Z,20.60
2023-05-04T20:01:54.311Z,20.60
2023-05-04T20:04:22.187Z,20.50
2023-05-04T20:06:50.285Z,20.40
2023-05-04T20:09:18.296Z,20.30
2023-05-04T20:11:46.957Z,20.30
2023-05-04T20:14:16.307Z,20.20
2023-05-04T20:16:44.182Z,20.20
2023-05-04T20:19:12.028Z,20.10
2023-05-04T20:21:39.829Z,20.10
2023-05-04T20:24:08.527Z,20.00
2023-05-04T20:26:36.348Z,20.00
2023-05-04T20:29:04.202Z,19.90
2023-05-04T20:31:33.829Z,19.90
2023-05-04T20:34:01.672Z,19.90
2023-05-04T20:36:29.537Z,19.80
2023-05-04T20:38:57.693Z,19.80
2023-05-04T20:41:25.527Z,19.70
2023-05-04T20:43:53.352Z,19.70
2023-05-04T20:46:21.859Z,19.60
2023-05-04T20:48:51.237Z,19.60
2023-05-04T20:51:19.092Z,19.50
2023-05-04T20:53:47.903Z,19.50
2023-05-04T20:56:16.010Z,19.40
2023-05-04T20:58:43.906Z,19.40
2023-05-04T21:01:11.820Z,19.40
2023-05-04T21:03:39.967Z,19.30
2023-05-04T21:06:09.237Z,19.20
2023-05-04T21:08:37.116Z,19.20
2023-05-04T21:11:05.158Z,19.10
2023-05-04T21:13:32.991Z,19.10
2023-05-04T21:16:00.873Z,19.00
2023-05-04T21:18:28.746Z,19.00
2023-05-04T21:20:56.842Z,18.90
2023-05-04T21:23:26.269Z,18.80
2023-05-04T21:26:02.300Z,18.80
2023-05-04T21:28:30.242Z,18.80
2023-05-04T21:30:58.794Z,18.70
2023-05-04T21:33:26.734Z,18.70
2023-05-04T21:35:54.712Z,18.70
2023-05-04T21:38:22.705Z,18.60
2023-05-04T21:40:51.939Z,18.60
2023-05-04T21:43:19.774Z,18.60
2023-05-04T21:45:47.625Z,18.50
2023-05-04T21:48:15.617Z,18.50
2023-05-04T21:50:43.486Z,18.40
2023-05-04T21:53:11.485Z,18.30
2023-05-04T21:55:39.642Z,18.30
2023-05-04T21:58:08.793Z,18.20
